Time;durP1;ratioP1;P1;durP2;ratioP2;P2;SDS_P1;SDS_P2;PMS_P1;PMS_P2;Temp;Humidity;BMP_temperature;BMP_pressure;BME280_temperature;BME280_humidity;BME280_pressure;Samples;Min_cycle;Max_cycle;Signal;HPM_P1;HPM_P2
2023/10/31 00:01:49;;;;;;;1.00;0.87;;;21.80;99.90;;;;;;4986610;28;20974;-74
2023/10/31 00:04:18;;;;;;;2.43;1.03;;;21.80;99.90;;;;;;4987471;28;20464;-73
2023/10/31 00:06:45;;;;;;;1.40;1.00;;;21.80;99.90;;;;;;4983899;28;20464;-72
2023/10/31 00:09:11;;;;;;;1.23;1.03;;;21.80;99.90;;;;;;4994123;28;20455;-73
2023/10/31 00:11:38;;;;;;;1.73;0.93;;;21.80;99.90;;;;;;4995136;28;20473;-74
2023/10/31 00:14:05;;;;;;;2.43;1.10;;;21.80;99.90;;;;;;4992367;28;20463;-74
2023/10/31 00:16:32;;;;;;;1.20;0.87;;;21.80;99.90;;;;;;4985154;28;20589;-72
2023/10/31 00:18:59;;;;;;;2.40;1.13;;;21.70;99.90;;;;;;4990564;28;20959;-73
2023/10/31 00:21:27;;;;;;;1.30;1.20;;;21.70;99.90;;;;;;4989762;28;20467;-72
2023/10/31 00:23:53;;;;;;;1.23;0.93;;;21.70;99.90;;;;;;4982359;28;20809;-73
2023/10/31 00:26:20;;;;;;;1.10;0.97;;;21.70;99.90;;;;;;4981028;28;20488;-73
2023/10/31 00:28:47;;;;;;;1.60;1.00;;;21.70;99.90;;;;;;4981218;28;20478;-71
2023/10/31 00:31:14;;;;;;;1.20;1.00;;;21.80;99.90;;;;;;4980894;28;21388;-74
2023/10/31 00:33:41;;;;;;;2.27;1.00;;;21.70;99.90;;;;;;4982063;28;20455;-73
2023/10/31 00:36:08;;;;;;;1.53;1.00;;;21.70;99.90;;;;;;4982748;28;20539;-76
2023/10/31 00:38:36;;;;;;;1.17;0.97;;;21.70;99.90;;;;;;4978344;28;20521;-74
2023/10/31 00:41:03;;;;;;;1.60;0.90;;;21.70;99.90;;;;;;4982761;28;20486;-73
2023/10/31 00:43:30;;;;;;;1.30;1.00;;;21.70;99.90;;;;;;4982964;28;20471;-73
2023/10/31 00:45:57;;;;;;;1.97;1.10;;;21.70;99.90;;;;;;4987029;28;20488;-74
2023/10/31 00:48:23;;;;;;;3.00;1.17;;;21.60;99.90;;;;;;4988141;28;20482;-75
2023/10/31 00:50:50;;;;;;;0.90;0.60;;;21.70;99.90;;;;;;4988203;28;21108;-74
2023/10/31 00:53:17;;;;;;;1.27;1.10;;;21.70;99.90;;;;;;4987675;28;20460;-73
2023/10/31 00:55:45;;;;;;;1.40;1.30;;;21.70;99.90;;;;;;4988228;28;20455;-75
2023/10/31 00:58:12;;;;;;;1.13;0.90;;;21.70;99.90;;;;;;4987529;28;20467;-71
2023/10/31 01:00:40;;;;;;;1.53;1.03;;;21.70;99.90;;;;;;4981716;28;20615;-73
2023/10/31 01:03:07;;;;;;;1.47;0.80;;;21.60;99.90;;;;;;4983314;28;21018;-72
2023/10/31 01:05:33;;;;;;;1.00;0.80;;;21.60;99.90;;;;;;4986584;28;20494;-71
2023/10/31 01:08:00;;;;;;;2.27;0.90;;;21.60;99.90;;;;;;4986391;28;21461;-72
2023/10/31 01:10:27;;;;;;;1.00;0.63;;;21.70;99.90;;;;;;4985548;28;20757;-71
2023/10/31 01:12:55;;;;;;;1.10;0.90;;;21.60;99.90;;;;;;4985211;28;20452;-71
2023/10/31 01:15:21;;;;;;;1.20;1.00;;;21.60;99.90;;;;;;4980153;28;20463;-71
2023/10/31 01:17:48;;;;;;;1.13;0.73;;;21.60;99.90;;;;;;4986352;28;20467;-71
2023/10/31 01:20:15;;;;;;;1.63;0.90;;;21.60;99.90;;;;;;4985848;28;20454;-71
2023/10/31 01:22:42;;;;;;;1.20;0.90;;;21.60;99.90;;;;;;4988375;28;20817;-71
2023/10/31 01:25:10;;;;;;;2.80;0.90;;;21.70;99.90;;;;;;4987484;28;20490;-72
2023/10/31 01:27:37;;;;;;;1.73;0.90;;;21.60;99.90;;;;;;4985033;28;20543;-72
2023/10/31 01:30:06;;;;;;;1.40;0.80;;;21.60;99.90;;;;;;4977585;28;20470;-70
2023/10/31 01:32:33;;;;;;;2.00;0.90;;;21.60;99.90;;;;;;4985789;28;20974;-71
2023/10/31 01:34:59;;;;;;;1.40;1.20;;;21.50;99.90;;;;;;4987350;28;20470;-71
2023/10/31 01:37:26;;;;;;;1.80;0.97;;;21.60;99.90;;;;;;4989585;28;20495;-71
2023/10/31 01:39:53;;;;;;;1.17;0.90;;;21.60;99.90;;;;;;4982799;28;20467;-71
2023/10/31 01:42:20;;;;;;;1.23;1.00;;;21.60;99.90;;;;;;4981812;28;20576;-71
2023/10/31 01:44:46;;;;;;;1.40;1.00;;;21.60;99.90;;;;;;4988993;28;20503;-73
2023/10/31 01:47:14;;;;;;;1.30;1.00;;;21.50;99.90;;;;;;4988704;28;20908;-69
2023/10/31 01:49:42;;;;;;;2.20;1.65;;;21.50;99.90;;;;;;4990580;28;20460;-71
2023/10/31 01:52:08;;;;;;;1.40;0.80;;;21.50;99.90;;;;;;4988474;28;20219;-70
2023/10/31 01:54:36;;;;;;;1.60;0.90;;;21.50;99.90;;;;;;4988330;28;20467;-72
2023/10/31 01:57:05;;;;;;;1.38;0.90;;;21.50;99.90;;;;;;4986042;28;20467;-70
2023/10/31 01:59:32;;;;;;;1.50;1.10;;;21.50;99.90;;;;;;4986190;28;20221;-71
2023/10/31 02:02:01;;;;;;;1.43;1.10;;;21.50;99.90;;;;;;4987652;28;20552;-71
2023/10/31 02:04:29;;;;;;;1.20;0.90;;;21.50;99.90;;;;;;5014465;23;20490;-67
2023/10/31 02:06:56;;;;;;;1.30;1.10;;;21.50;99.90;;;;;;5010582;28;20974;-70
2023/10/31 02:09:26;;;;;;;1.10;0.80;;;21.50;99.90;;;;;;5013235;28;20461;-71
2023/10/31 02:11:53;;;;;;;1.20;0.90;;;21.50;99.90;;;;;;5008929;28;20902;-70
2023/10/31 02:14:20;;;;;;;1.20;1.00;;;21.50;99.90;;;;;;5006618;28;20467;-68
2023/10/31 02:16:46;;;;;;;1.97;1.00;;;21.50;99.90;;;;;;5004760;28;20816;-71
2023/10/31 02:19:16;;;;;;;1.10;0.80;;;21.50;99.90;;;;;;5010673;28;20459;-70
2023/10/31 02:21:44;;;;;;;1.10;0.90;;;21.50;99.90;;;;;;5009800;28;20458;-70
2023/10/31 02:24:11;;;;;;;2.97;0.80;;;21.50;99.90;;;;;;5007684;28;20557;-69
2023/10/31 02:26:37;;;;;;;1.30;0.90;;;21.40;99.90;;;;;;5004260;28;20699;-71
2023/10/31 02:29:05;;;;;;;1.20;0.80;;;21.40;99.90;;;;;;5005344;28;21116;-70
2023/10/31 02:31:31;;;;;;;1.17;0.90;;;21.40;99.90;;;;;;5002984;28;21028;-70
2023/10/31 02:33:58;;;;;;;0.90;0.70;;;21.40;99.90;;;;;;5004195;28;20454;-69
2023/10/31 02:36:25;;;;;;;1.63;1.00;;;21.40;99.90;;;;;;5005733;28;20463;-70
2023/10/31 02:38:53;;;;;;;1.50;0.90;;;21.40;99.90;;;;;;5005662;28;20208;-70
2023/10/31 02:41:20;;;;;;;1.10;0.90;;;21.40;99.90;;;;;;5004732;28;20466;-70
2023/10/31 02:43:46;;;;;;;2.20;0.90;;;21.40;99.90;;;;;;5003714;28;20487;-70
2023/10/31 02:46:15;;;;;;;2.00;0.82;;;21.40;99.90;;;;;;5003023;28;20501;-69
2023/10/31 02:48:42;;;;;;;1.00;0.90;;;21.40;99.90;;;;;;5001202;28;20196;-70
2023/10/31 02:51:09;;;;;;;4.30;0.90;;;21.40;99.90;;;;;;5006052;28;20197;-70
2023/10/31 02:53:36;;;;;;;0.90;0.70;;;21.40;99.90;;;;;;5000958;28;20456;-71
2023/10/31 02:56:04;;;;;;;1.25;0.95;;;21.40;99.90;;;;;;5003197;28;20210;-69
2023/10/31 02:58:31;;;;;;;1.25;1.10;;;21.40;99.90;;;;;;5009074;28;20216;-71
2023/10/31 03:00:58;;;;;;;1.50;1.10;;;21.40;99.90;;;;;;5007357;28;20207;-71
2023/10/31 03:03:24;;;;;;;1.25;1.00;;;21.30;99.90;;;;;;5007494;28;20203;-70
2023/10/31 03:05:51;;;;;;;1.93;1.00;;;21.40;99.90;;;;;;5007224;28;20565;-71
2023/10/31 03:08:20;;;;;;;1.00;0.80;;;21.40;99.90;;;;;;5008803;28;20463;-71
2023/10/31 03:10:49;;;;;;;1.00;0.80;;;21.40;99.90;;;;;;5009868;28;20556;-70
2023/10/31 03:13:18;;;;;;;1.53;0.80;;;21.40;99.90;;;;;;5006086;28;20781;-70
2023/10/31 03:15:44;;;;;;;1.13;0.80;;;21.30;99.80;;;;;;5008877;28;20561;-69
2023/10/31 03:18:11;;;;;;;1.20;0.80;;;21.30;99.80;;;;;;5008312;28;20202;-70
2023/10/31 03:20:38;;;;;;;1.50;1.00;;;21.30;99.90;;;;;;5007204;28;20460;-70
2023/10/31 03:23:05;;;;;;;1.20;0.80;;;21.30;99.90;;;;;;5006443;28;20812;-71
2023/10/31 03:25:31;;;;;;;1.05;0.77;;;21.30;99.90;;;;;;5007975;28;20490;-70
2023/10/31 03:27:58;;;;;;;1.10;0.80;;;21.30;99.90;;;;;;5006671;28;20194;-70
2023/10/31 03:30:26;;;;;;;1.42;1.00;;;21.30;99.90;;;;;;5005839;28;20456;-70
2023/10/31 03:32:53;;;;;;;1.30;0.80;;;21.30;99.90;;;;;;5007662;28;21137;-71
2023/10/31 03:35:20;;;;;;;2.23;1.17;;;21.30;99.90;;;;;;5008469;28;20459;-70
2023/10/31 03:37:46;;;;;;;1.30;0.90;;;21.30;99.80;;;;;;5004213;28;20463;-70
2023/10/31 03:40:13;;;;;;;1.20;0.70;;;21.30;99.90;;;;;;5005391;28;20207;-70
2023/10/31 03:42:40;;;;;;;1.10;0.80;;;21.30;99.80;;;;;;5008641;28;20811;-69
2023/10/31 03:45:08;;;;;;;1.33;0.80;;;21.30;99.90;;;;;;5007617;28;20204;-70
2023/10/31 03:47:36;;;;;;;0.90;0.70;;;21.30;99.90;;;;;;5005910;28;20493;-69
2023/10/31 03:50:03;;;;;;;1.20;1.00;;;21.30;99.90;;;;;;5005469;28;20462;-70
2023/10/31 03:52:29;;;;;;;1.13;0.80;;;21.30;99.90;;;;;;5006874;28;20708;-71
2023/10/31 03:54:56;;;;;;;1.00;0.70;;;21.20;99.80;;;;;;5006367;28;20464;-71
2023/10/31 03:57:23;;;;;;;1.00;0.70;;;21.20;99.80;;;;;;5003717;28;20819;-70
2023/10/31 03:59:49;;;;;;;1.40;1.10;;;21.20;99.90;;;;;;5006158;28;20466;-70
2023/10/31 04:02:16;;;;;;;1.17;0.97;;;21.20;99.80;;;;;;5005066;28;20474;-69
2023/10/31 04:04:44;;;;;;;1.60;0.90;;;21.20;99.90;;;;;;5006062;28;20471;-69
2023/10/31 04:07:11;;;;;;;1.30;1.00;;;21.20;99.80;;;;;;5003670;28;20491;-69
2023/10/31 04:09:38;;;;;;;1.00;0.80;;;21.20;99.80;;;;;;5004552;28;20470;-70
2023/10/31 04:12:05;;;;;;;1.00;0.77;;;21.20;99.80;;;;;;5004531;28;20247;-70
2023/10/31 04:14:32;;;;;;;1.20;1.00;;;21.20;99.80;;;;;;5004696;28;20557;-71
2023/10/31 04:16:58;;;;;;;1.10;0.88;;;21.20;99.90;;;;;;4998153;28;20466;-70
2023/10/31 04:19:25;;;;;;;1.40;0.80;;;21.20;99.80;;;;;;5010589;28;20195;-70
2023/10/31 04:21:55;;;;;;;1.30;0.88;;;21.20;99.80;;;;;;5006830;28;20662;-71
2023/10/31 04:24:21;;;;;;;1.10;0.83;;;21.20;99.80;;;;;;5009370;28;20200;-70
2023/10/31 04:26:48;;;;;;;1.10;1.00;;;21.20;99.90;;;;;;5006321;28;20482;-69
2023/10/31 04:29:15;;;;;;;1.10;0.80;;;21.20;99.90;;;;;;5002693;28;21115;-71
2023/10/31 04:31:41;;;;;;;1.10;0.80;;;21.20;99.80;;;;;;5000107;28;20201;-70
2023/10/31 04:34:09;;;;;;;1.37;1.03;;;21.10;99.80;;;;;;5003222;28;20641;-70
2023/10/31 04:36:36;;;;;;;1.20;1.00;;;21.20;99.80;;;;;;5003527;28;20460;-70
2023/10/31 04:39:04;;;;;;;0.97;0.70;;;21.10;99.80;;;;;;5003703;28;20471;-70
2023/10/31 04:41:30;;;;;;;1.00;0.80;;;21.10;99.80;;;;;;5000738;28;21025;-71
2023/10/31 04:43:57;;;;;;;1.63;0.83;;;21.10;99.80;;;;;;5001102;28;20197;-71
2023/10/31 04:46:26;;;;;;;1.27;0.90;;;21.10;99.80;;;;;;5001508;28;20482;-71
2023/10/31 04:48:53;;;;;;;1.10;0.70;;;21.10;99.80;;;;;;5000659;28;20468;-70
2023/10/31 04:51:20;;;;;;;1.00;0.80;;;21.10;99.80;;;;;;5000978;28;20204;-71
2023/10/31 04:53:47;;;;;;;1.25;0.90;;;21.10;99.80;;;;;;5003250;28;20457;-69
2023/10/31 04:56:16;;;;;;;1.00;0.80;;;21.10;99.80;;;;;;5002046;28;20220;-71
2023/10/31 04:58:42;;;;;;;2.23;1.07;;;21.10;99.90;;;;;;5000921;28;20467;-70
2023/10/31 05:01:09;;;;;;;1.13;0.90;;;21.10;99.90;;;;;;5000315;28;20483;-70
2023/10/31 05:03:36;;;;;;;1.58;1.00;;;21.10;99.80;;;;;;5003268;28;20964;-71
2023/10/31 05:06:03;;;;;;;1.92;0.70;;;21.10;99.80;;;;;;5004201;28;20231;-70
2023/10/31 05:08:30;;;;;;;1.10;0.82;;;21.10;99.90;;;;;;5007388;28;20196;-70
2023/10/31 05:10:57;;;;;;;1.25;0.85;;;21.10;99.90;;;;;;5004596;28;20209;-69
2023/10/31 05:13:25;;;;;;;1.30;0.88;;;21.00;99.80;;;;;;5007468;28;20223;-70
2023/10/31 05:15:52;;;;;;;1.00;0.80;;;21.00;99.80;;;;;;5010496;28;20201;-71
2023/10/31 05:18:19;;;;;;;1.27;0.80;;;21.00;99.80;;;;;;5006078;28;20674;-71
2023/10/31 05:20:46;;;;;;;1.10;0.90;;;21.00;99.90;;;;;;5006165;28;20588;-71
2023/10/31 05:23:12;;;;;;;1.20;0.77;;;21.00;99.90;;;;;;5009450;28;20196;-70
2023/10/31 05:25:39;;;;;;;1.80;0.90;;;21.00;99.90;;;;;;5010823;28;20463;-70
2023/10/31 05:28:06;;;;;;;1.35;0.90;;;21.00;99.90;;;;;;5011556;28;20478;-70
2023/10/31 05:30:34;;;;;;;2.60;0.98;;;21.00;99.90;;;;;;5009193;28;20197;-70
2023/10/31 05:33:01;;;;;;;1.40;0.93;;;21.00;99.90;;;;;;5010292;28;20192;-69
2023/10/31 05:35:27;;;;;;;1.10;0.90;;;21.00;99.90;;;;;;5012067;28;20211;-70
2023/10/31 05:37:54;;;;;;;1.27;0.95;;;21.00;99.90;;;;;;5007845;28;20210;-71
2023/10/31 05:40:22;;;;;;;1.00;0.80;;;21.00;99.90;;;;;;5009475;28;20677;-70
2023/10/31 05:42:48;;;;;;;1.30;1.00;;;21.00;99.90;;;;;;5011045;28;20257;-70
2023/10/31 05:45:15;;;;;;;1.10;0.80;;;21.00;99.90;;;;;;5009502;28;21077;-70
2023/10/31 05:47:43;;;;;;;1.00;0.80;;;21.00;99.90;;;;;;5005891;28;20550;-70
2023/10/31 05:50:10;;;;;;;1.20;1.00;;;20.90;99.90;;;;;;5008888;28;20207;-70
2023/10/31 05:52:37;;;;;;;3.20;0.70;;;21.00;99.90;;;;;;5008399;28;20205;-71
2023/10/31 05:55:04;;;;;;;1.05;0.80;;;21.00;99.90;;;;;;5011488;28;20467;-69
2023/10/31 05:57:31;;;;;;;1.15;0.82;;;21.00;99.90;;;;;;5005136;28;20660;-70
2023/10/31 05:59:58;;;;;;;1.33;1.10;;;21.00;99.90;;;;;;5008169;28;20212;-70
2023/10/31 06:02:25;;;;;;;0.90;0.70;;;21.00;99.90;;;;;;5004587;28;20294;-70
2023/10/31 06:04:53;;;;;;;1.00;0.70;;;21.00;99.90;;;;;;5004656;28;20209;-71
2023/10/31 06:07:20;;;;;;;1.00;0.80;;;20.90;99.90;;;;;;5007726;28;20225;-69
2023/10/31 06:09:46;;;;;;;1.10;0.88;;;20.90;99.90;;;;;;5004969;28;20208;-70
2023/10/31 06:12:13;;;;;;;1.10;0.80;;;20.90;99.90;;;;;;5006819;28;20278;-71
2023/10/31 06:14:40;;;;;;;1.30;0.90;;;20.90;99.90;;;;;;5014287;28;20223;-70
2023/10/31 06:17:07;;;;;;;1.10;0.90;;;20.90;99.90;;;;;;5001415;28;20200;-70
2023/10/31 06:19:35;;;;;;;1.48;0.90;;;20.90;99.90;;;;;;5002290;28;20451;-70
2023/10/31 06:22:03;;;;;;;0.90;0.70;;;20.90;99.90;;;;;;5000919;28;20255;-71
2023/10/31 06:24:30;;;;;;;1.10;0.80;;;20.90;99.90;;;;;;5001760;28;20824;-71
2023/10/31 06:26:57;;;;;;;1.10;0.90;;;20.90;99.90;;;;;;5001973;28;20231;-70
2023/10/31 06:29:23;;;;;;;1.00;0.70;;;20.90;99.90;;;;;;5005376;28;20188;-70
2023/10/31 06:31:50;;;;;;;1.00;0.80;;;20.90;99.90;;;;;;5005334;28;20214;-70
2023/10/31 06:34:17;;;;;;;1.10;0.90;;;20.90;99.90;;;;;;5002884;28;21703;-71
2023/10/31 06:36:42;;;;;;;0.93;0.70;;;20.90;99.90;;;;;;5005972;28;20459;-71
2023/10/31 06:39:10;;;;;;;1.00;0.80;;;20.90;99.90;;;;;;5003497;28;20199;-70
2023/10/31 06:41:37;;;;;;;1.00;0.85;;;20.90;99.90;;;;;;5003705;28;20192;-71
2023/10/31 06:44:04;;;;;;;1.30;1.10;;;20.90;99.90;;;;;;5004543;28;20208;-70
2023/10/31 06:46:31;;;;;;;1.10;0.90;;;20.90;99.90;;;;;;5006924;28;20229;-71
2023/10/31 06:48:58;;;;;;;2.22;0.93;;;20.90;99.90;;;;;;5004018;28;20462;-70
2023/10/31 06:51:24;;;;;;;1.10;0.90;;;20.90;99.90;;;;;;5004388;28;20200;-70
2023/10/31 06:53:52;;;;;;;1.10;0.85;;;20.90;99.90;;;;;;5007220;28;20532;-70
2023/10/31 06:56:20;;;;;;;1.10;0.80;;;20.80;99.90;;;;;;5003526;28;20196;-70
2023/10/31 06:58:47;;;;;;;0.98;0.77;;;20.90;99.90;;;;;;5004217;28;20204;-71
2023/10/31 07:01:18;;;;;;;1.73;1.00;;;20.90;99.90;;;;;;5003686;28;20196;-71
2023/10/31 07:03:45;;;;;;;1.00;0.80;;;20.80;99.90;;;;;;5003865;28;20290;-70
2023/10/31 07:06:12;;;;;;;1.08;0.90;;;20.80;99.90;;;;;;5009226;28;20463;-71
2023/10/31 07:08:39;;;;;;;1.00;0.80;;;20.80;99.90;;;;;;5002028;28;20231;-70
2023/10/31 07:11:06;;;;;;;1.00;0.80;;;20.80;99.90;;;;;;5003510;28;20203;-71
2023/10/31 07:13:34;;;;;;;1.20;0.90;;;20.80;99.90;;;;;;5004150;28;20654;-69
2023/10/31 07:16:01;;;;;;;1.20;1.00;;;20.80;99.90;;;;;;4994528;28;20495;-69
2023/10/31 07:18:27;;;;;;;1.17;0.93;;;20.80;99.90;;;;;;5005395;28;20208;-70
2023/10/31 07:20:54;;;;;;;1.10;0.90;;;20.80;99.90;;;;;;5002873;28;20516;-71
2023/10/31 07:23:22;;;;;;;1.17;1.08;;;20.80;99.90;;;;;;5005247;28;20271;-69
2023/10/31 07:25:48;;;;;;;1.42;0.70;;;20.80;99.90;;;;;;5007849;28;20299;-69
2023/10/31 07:28:17;;;;;;;1.52;0.93;;;20.80;99.90;;;;;;5003671;28;20224;-71
2023/10/31 07:30:45;;;;;;;1.27;0.98;;;20.80;99.90;;;;;;5000266;28;20197;-69
2023/10/31 07:33:11;;;;;;;1.23;0.90;;;20.80;99.90;;;;;;5002828;28;20210;-71
2023/10/31 07:35:38;;;;;;;2.35;0.93;;;20.80;99.90;;;;;;5005862;28;20458;-71
2023/10/31 07:38:05;;;;;;;1.60;1.20;;;20.90;99.90;;;;;;5008172;28;20645;-71
2023/10/31 07:40:32;;;;;;;1.20;0.90;;;20.90;99.90;;;;;;5001653;28;20459;-71
2023/10/31 07:42:58;;;;;;;2.35;0.90;;;20.90;99.90;;;;;;5007261;28;20468;-71
2023/10/31 07:45:25;;;;;;;1.13;1.02;;;20.90;99.90;;;;;;5009250;28;20592;-70
2023/10/31 07:47:53;;;;;;;1.17;0.90;;;20.90;99.90;;;;;;5005216;28;20226;-71
2023/10/31 07:50:20;;;;;;;1.08;0.90;;;21.00;99.90;;;;;;5008140;28;20207;-70
2023/10/31 07:52:47;;;;;;;1.50;1.30;;;21.00;99.90;;;;;;5006950;28;20205;-70
2023/10/31 07:55:14;;;;;;;1.30;1.03;;;21.00;99.90;;;;;;5007746;28;20541;-70
2023/10/31 07:57:43;;;;;;;1.20;1.00;;;21.00;99.90;;;;;;5007663;28;20490;-70
2023/10/31 08:00:12;;;;;;;1.02;0.80;;;21.00;99.90;;;;;;5008792;28;20469;-70
2023/10/31 08:02:39;;;;;;;1.00;0.90;;;21.00;99.90;;;;;;5009752;28;20206;-71
2023/10/31 08:05:09;;;;;;;1.00;0.80;;;21.00;99.90;;;;;;5014937;28;20458;-69
2023/10/31 08:07:36;;;;;;;1.23;1.10;;;21.10;99.90;;;;;;5007568;28;20474;-70
2023/10/31 08:10:03;;;;;;;1.13;1.00;;;21.10;99.90;;;;;;5011916;28;20461;-70
2023/10/31 08:12:30;;;;;;;1.10;0.80;;;21.10;99.90;;;;;;5000222;28;20485;-71
2023/10/31 08:14:58;;;;;;;1.03;0.90;;;21.10;99.90;;;;;;5001678;28;20506;-70
2023/10/31 08:17:25;;;;;;;1.05;0.90;;;21.20;99.90;;;;;;4998532;28;20963;-68
2023/10/31 08:19:52;;;;;;;0.97;0.73;;;21.10;99.90;;;;;;5003781;28;20233;-68
2023/10/31 08:22:20;;;;;;;1.47;1.07;;;21.20;99.90;;;;;;4997622;28;20463;-69
2023/10/31 08:24:47;;;;;;;1.00;0.70;;;21.20;99.90;;;;;;4998809;28;20880;-71
2023/10/31 08:27:15;;;;;;;1.10;0.70;;;21.20;99.90;;;;;;5001187;28;20491;-70
2023/10/31 08:29:41;;;;;;;1.27;0.83;;;21.20;99.90;;;;;;5000897;28;20540;-70
2023/10/31 08:32:08;;;;;;;1.00;0.87;;;21.20;99.90;;;;;;5000673;28;20468;-70
2023/10/31 08:34:35;;;;;;;1.20;0.90;;;21.20;99.90;;;;;;4999061;28;20467;-69
2023/10/31 08:37:02;;;;;;;1.20;0.90;;;21.20;99.90;;;;;;5001605;28;20769;-69
2023/10/31 08:39:30;;;;;;;1.10;0.80;;;21.20;99.90;;;;;;4996428;28;20463;-69
2023/10/31 08:41:59;;;;;;;1.40;1.00;;;21.10;99.90;;;;;;5001893;28;20474;-70
2023/10/31 08:44:25;;;;;;;1.07;0.80;;;21.20;99.90;;;;;;5002699;28;20463;-69
2023/10/31 08:46:52;;;;;;;1.30;0.80;;;21.20;99.90;;;;;;5005377;28;20470;-70
2023/10/31 08:49:19;;;;;;;1.10;0.87;;;21.30;99.90;;;;;;5005099;28;21050;-69
2023/10/31 08:51:46;;;;;;;1.13;0.90;;;21.20;99.90;;;;;;5003243;28;20981;-69
2023/10/31 08:54:13;;;;;;;1.20;0.90;;;21.30;99.90;;;;;;5005493;28;20463;-73
2023/10/31 08:56:41;;;;;;;1.27;1.00;;;21.30;99.90;;;;;;5001098;28;20470;-69
2023/10/31 08:59:08;;;;;;;1.23;1.07;;;21.30;99.90;;;;;;5005284;28;20831;-68
2023/10/31 09:01:34;;;;;;;1.00;0.80;;;21.30;99.90;;;;;;5001308;28;20723;-70
2023/10/31 09:04:01;;;;;;;1.00;0.90;;;21.30;99.90;;;;;;5003625;28;20463;-69
2023/10/31 09:06:28;;;;;;;0.90;0.77;;;21.30;99.90;;;;;;5003246;28;20505;-70
2023/10/31 09:08:55;;;;;;;0.90;0.70;;;21.30;99.90;;;;;;5006835;28;20850;-71
2023/10/31 09:11:21;;;;;;;1.00;0.80;;;21.30;99.90;;;;;;5006464;28;20478;-70
2023/10/31 09:13:49;;;;;;;1.00;0.90;;;21.30;99.90;;;;;;5000317;28;21016;-69
2023/10/31 09:16:16;;;;;;;1.73;0.90;;;21.30;99.90;;;;;;5005040;28;20461;-70
2023/10/31 09:18:43;;;;;;;1.07;0.90;;;21.30;99.90;;;;;;5004543;28;20567;-71
2023/10/31 09:21:10;;;;;;;1.07;0.90;;;21.30;99.90;;;;;;5007598;28;20463;-70
2023/10/31 09:23:37;;;;;;;1.20;0.90;;;21.30;99.90;;;;;;5001776;28;20587;-69
2023/10/31 09:26:04;;;;;;;1.40;0.90;;;21.30;99.90;;;;;;5003854;28;20467;-70
2023/10/31 09:28:31;;;;;;;1.10;0.90;;;21.30;99.90;;;;;;5008300;28;20482;-69
2023/10/31 09:31:01;;;;;;;1.93;1.20;;;21.30;99.90;;;;;;5005876;28;20455;-69
2023/10/31 09:33:28;;;;;;;1.23;1.13;;;21.40;99.90;;;;;;5006005;28;20451;-70
2023/10/31 09:35:55;;;;;;;1.33;0.90;;;21.40;99.90;;;;;;5004126;28;20538;-69
2023/10/31 09:38:21;;;;;;;1.13;0.90;;;21.30;99.90;;;;;;5000865;28;21200;-70
2023/10/31 09:40:48;;;;;;;1.10;0.90;;;21.30;99.90;;;;;;5007598;28;20191;-70
2023/10/31 09:43:15;;;;;;;1.03;0.87;;;21.40;99.90;;;;;;5007989;28;20455;-70
2023/10/31 09:45:42;;;;;;;1.10;0.73;;;21.40;99.90;;;;;;5005989;28;20459;-72
2023/10/31 09:48:10;;;;;;;1.40;0.90;;;21.40;99.90;;;;;;5002730;28;20524;-68
2023/10/31 09:50:38;;;;;;;1.20;1.07;;;21.40;99.90;;;;;;5005885;28;20787;-70
2023/10/31 09:53:07;;;;;;;1.10;0.80;;;21.40;99.90;;;;;;5011217;28;21484;-69
2023/10/31 09:55:34;;;;;;;1.70;0.90;;;21.40;99.90;;;;;;5005481;28;20978;-68
2023/10/31 09:58:01;;;;;;;1.10;0.90;;;21.40;99.90;;;;;;5003568;28;20451;-68
2023/10/31 10:00:28;;;;;;;2.13;0.90;;;21.40;99.90;;;;;;5011678;28;20466;-69
2023/10/31 10:02:55;;;;;;;1.27;1.17;;;21.40;99.90;;;;;;5009996;28;20473;-68
2023/10/31 10:05:25;;;;;;;1.27;1.07;;;21.40;99.90;;;;;;5010171;28;20454;-68
2023/10/31 10:07:56;;;;;;;0.97;0.80;;;21.40;99.90;;;;;;5007273;28;20468;-70
2023/10/31 10:10:23;;;;;;;2.50;1.33;;;21.40;99.90;;;;;;5004856;28;20470;-65
2023/10/31 10:12:49;;;;;;;3.50;2.50;;;21.40;99.90;;;;;;5006280;28;20468;-62
2023/10/31 10:15:16;;;;;;;4.30;3.23;;;21.40;99.00;;;;;;5006941;28;20483;-64
2023/10/31 10:17:49;;;;;;;3.43;3.13;;;21.30;97.60;;;;;;4998854;28;20471;-70
2023/10/31 10:20:17;;;;;;;2.87;2.67;;;21.40;98.00;;;;;;5002646;28;21037;-68
2023/10/31 10:22:46;;;;;;;3.70;2.30;;;21.30;97.20;;;;;;5004966;28;21007;-64
2023/10/31 10:25:15;;;;;;;4.20;2.60;;;21.30;97.40;;;;;;5002134;28;20462;-63
2023/10/31 10:27:42;;;;;;;4.63;3.27;;;21.20;97.20;;;;;;5009532;28;21005;-65
2023/10/31 10:30:10;;;;;;;12.50;3.67;;;21.20;96.80;;;;;;5013426;28;20462;-64
2023/10/31 10:32:37;;;;;;;7.60;3.77;;;21.20;97.00;;;;;;5004795;28;20945;-67
2023/10/31 10:35:04;;;;;;;3.20;2.70;;;21.20;96.70;;;;;;5002572;28;20446;-69
2023/10/31 10:37:31;;;;;;;4.33;2.50;;;21.20;98.30;;;;;;5005869;28;20458;-64
2023/10/31 10:39:59;;;;;;;7.90;2.40;;;21.20;98.70;;;;;;5009809;28;20574;-65
2023/10/31 10:42:33;;;;;;;3.60;2.00;;;21.30;99.10;;;;;;5008826;28;20460;-66
2023/10/31 10:45:03;;;;;;;3.50;1.80;;;21.30;99.30;;;;;;5015970;28;20450;-63
2023/10/31 10:47:31;;;;;;;6.03;1.80;;;21.40;99.50;;;;;;5015851;28;20452;-61
2023/10/31 10:50:00;;;;;;;5.23;2.40;;;21.40;99.80;;;;;;5003937;28;20497;-62
2023/10/31 10:52:33;;;;;;;3.20;2.40;;;21.50;99.90;;;;;;5008494;28;20458;-62
2023/10/31 10:55:07;;;;;;;4.40;2.30;;;21.50;99.90;;;;;;5005208;28;20455;-63
2023/10/31 10:57:39;;;;;;;3.63;2.60;;;20.20;99.90;;;;;;5003647;28;20462;-61
2023/10/31 11:00:09;;;;;;;3.37;2.40;;;21.60;99.90;;;;;;5006467;28;20455;-61
2023/10/31 11:02:37;;;;;;;2.80;2.07;;;21.60;99.90;;;;;;5000363;28;20475;-61
2023/10/31 11:05:07;;;;;;;2.07;1.87;;;21.60;99.90;;;;;;5004424;28;20811;-61
2023/10/31 11:07:35;;;;;;;3.43;3.00;;;21.70;99.90;;;;;;5001978;28;20501;-61
2023/10/31 11:10:04;;;;;;;4.10;2.00;;;21.70;99.90;;;;;;5004452;28;20461;-61
2023/10/31 11:12:31;;;;;;;4.27;2.33;;;21.70;99.90;;;;;;5003423;28;21242;-62
2023/10/31 11:15:00;;;;;;;2.77;2.00;;;21.50;99.90;;;;;;5001018;28;20542;-61
2023/10/31 11:17:29;;;;;;;4.73;2.17;;;21.90;99.90;;;;;;4999775;28;20570;-62
2023/10/31 11:19:57;;;;;;;3.27;2.23;;;21.90;99.90;;;;;;5007065;28;20459;-64
2023/10/31 11:22:24;;;;;;;3.40;1.97;;;21.90;99.90;;;;;;5004731;28;20467;-64
2023/10/31 11:24:51;;;;;;;3.77;2.40;;;22.00;99.90;;;;;;5004176;28;20462;-62
2023/10/31 11:27:19;;;;;;;3.47;2.70;;;22.00;99.90;;;;;;5004117;28;20458;-62
2023/10/31 11:29:48;;;;;;;3.40;2.07;;;22.00;99.90;;;;;;4997986;28;20486;-62
2023/10/31 11:32:15;;;;;;;6.90;4.27;;;22.00;99.90;;;;;;5002302;28;20462;-62
2023/10/31 11:34:43;;;;;;;6.70;2.50;;;21.90;99.90;;;;;;5002799;28;20473;-62
2023/10/31 11:37:23;;;;;;;7.17;2.87;;;22.00;99.90;;;;;;5002790;28;20545;-65
2023/10/31 11:40:21;;;;;;;9.03;2.70;;;22.10;99.90;;;;;;5007311;28;20459;-62
2023/10/31 11:42:51;;;;;;;6.63;2.97;;;22.10;99.90;;;;;;5002506;28;20466;-64
2023/10/31 11:45:32;;;;;;;3.63;2.70;;;22.10;99.90;;;;;;5004884;28;20494;-63
2023/10/31 11:47:59;;;;;;;3.83;2.47;;;22.20;99.90;;;;;;5001730;28;20463;-62
2023/10/31 11:50:26;;;;;;;2.93;2.17;;;22.10;99.90;;;;;;5004420;28;20512;-63
2023/10/31 11:53:00;;;;;;;6.77;2.80;;;22.10;99.90;;;;;;5005190;28;20749;-62
2023/10/31 11:55:28;;;;;;;3.07;2.37;;;22.10;99.90;;;;;;5003300;28;20614;-61
2023/10/31 11:57:56;;;;;;;4.43;2.83;;;22.20;99.90;;;;;;5009155;28;20446;-64
2023/10/31 12:00:24;;;;;;;3.40;2.93;;;22.30;99.90;;;;;;5007409;28;20515;-63
2023/10/31 12:03:01;;;;;;;3.23;2.57;;;22.20;99.90;;;;;;5001296;28;20470;-64
2023/10/31 12:05:28;;;;;;;4.30;2.40;;;22.30;99.90;;;;;;5010098;28;20462;-64
2023/10/31 12:07:55;;;;;;;4.63;3.10;;;22.30;99.90;;;;;;5004608;28;20462;-64
2023/10/31 12:10:24;;;;;;;4.93;3.33;;;22.30;99.90;;;;;;5005824;28;20463;-67
2023/10/31 12:12:51;;;;;;;7.10;2.80;;;22.40;99.90;;;;;;5008618;28;20946;-65
2023/10/31 12:15:19;;;;;;;4.23;2.47;;;22.40;99.90;;;;;;5003926;28;20879;-63
2023/10/31 12:17:46;;;;;;;3.07;2.50;;;22.40;99.90;;;;;;5002359;28;20469;-61
2023/10/31 12:20:13;;;;;;;5.67;2.50;;;22.40;99.90;;;;;;5009235;28;20476;-60
2023/10/31 12:22:40;;;;;;;3.63;2.10;;;22.50;99.90;;;;;;5009142;28;20474;-60
2023/10/31 12:25:08;;;;;;;2.83;2.53;;;22.40;99.90;;;;;;5002649;28;20489;-61
2023/10/31 12:27:44;;;;;;;4.47;2.83;;;22.40;99.90;;;;;;5002597;28;20470;-61
2023/10/31 12:30:11;;;;;;;8.33;2.63;;;22.50;99.90;;;;;;5006270;28;20495;-68
2023/10/31 12:32:41;;;;;;;3.50;2.53;;;22.50;99.90;;;;;;5009968;28;20454;-69
2023/10/31 12:35:10;;;;;;;4.30;2.80;;;22.60;99.90;;;;;;5001271;28;20465;-68
2023/10/31 12:37:37;;;;;;;3.27;2.67;;;22.60;99.90;;;;;;5005300;28;20451;-65
2023/10/31 12:40:04;;;;;;;3.10;2.00;;;22.60;99.90;;;;;;5003846;28;20798;-65
2023/10/31 12:42:33;;;;;;;4.47;2.80;;;22.60;99.90;;;;;;4997084;28;20464;-67
2023/10/31 12:45:00;;;;;;;3.23;2.23;;;22.70;99.90;;;;;;4997978;28;21236;-63
2023/10/31 12:47:27;;;;;;;4.20;2.33;;;22.60;99.90;;;;;;5000999;28;20456;-64
2023/10/31 12:50:10;;;;;;;3.00;2.40;;;22.70;99.90;;;;;;5001596;28;20479;-63